sensor_id;sensor_type;location;lat;lon;timestamp;P1;durP1;ratioP1;P2;durP2;ratioP2
51901;SDS011;37929;53.218;6.548;2023-07-20T00:00:52;4.40;;;2.38;;
51901;SDS011;37929;53.218;6.548;2023-07-20T00:03:19;4.85;;;2.58;;
51901;SDS011;37929;53.218;6.548;2023-07-20T00:05:48;3.53;;;2.50;;
51901;SDS011;37929;53.218;6.548;2023-07-20T00:08:15;3.58;;;2.92;;
51901;SDS011;37929;53.218;6.548;2023-07-20T00:10:42;4.18;;;3.00;;
51901;SDS011;37929;53.218;6.548;2023-07-20T00:13:08;3.95;;;2.70;;
51901;SDS011;37929;53.218;6.548;2023-07-20T00:15:34;4.45;;;2.42;;
51901;SDS011;37929;53.218;6.548;2023-07-20T00:18:00;3.38;;;2.78;;
51901;SDS011;37929;53.218;6.548;2023-07-20T00:20:26;3.33;;;2.70;;
51901;SDS011;37929;53.218;6.548;2023-07-20T00:22:52;4.93;;;2.63;;
51901;SDS011;37929;53.218;6.548;2023-07-20T00:25:19;5.18;;;2.88;;
51901;SDS011;37929;53.218;6.548;2023-07-20T00:27:45;5.15;;;2.90;;
51901;SDS011;37929;53.218;6.548;2023-07-20T00:30:11;4.15;;;2.95;;
51901;SDS011;37929;53.218;6.548;2023-07-20T00:32:37;5.15;;;2.55;;
51901;SDS011;37929;53.218;6.548;2023-07-20T00:35:03;3.67;;;2.28;;
51901;SDS011;37929;53.218;6.548;2023-07-20T00:37:29;3.65;;;2.70;;
51901;SDS011;37929;53.218;6.548;2023-07-20T00:39:55;4.50;;;2.55;;
51901;SDS011;37929;53.218;6.548;2023-07-20T00:42:21;3.05;;;2.60;;
51901;SDS011;37929;53.218;6.548;2023-07-20T00:44:47;3.17;;;2.45;;
51901;SDS011;37929;53.218;6.548;2023-07-20T00:47:13;3.05;;;2.33;;
51901;SDS011;37929;53.218;6.548;2023-07-20T00:49:39;5.40;;;2.80;;
51901;SDS011;37929;53.218;6.548;2023-07-20T00:52:06;3.85;;;2.60;;
51901;SDS011;37929;53.218;6.548;2023-07-20T00:54:32;3.28;;;2.80;;
51901;SDS011;37929;53.218;6.548;2023-07-20T00:57:00;3.40;;;2.65;;
51901;SDS011;37929;53.218;6.548;2023-07-20T00:59:27;6.38;;;3.10;;
51901;SDS011;37929;53.218;6.548;2023-07-20T01:01:53;3.40;;;2.95;;
51901;SDS011;37929;53.218;6.548;2023-07-20T01:04:19;3.60;;;2.70;;
51901;SDS011;37929;53.218;6.548;2023-07-20T01:06:47;3.80;;;2.75;;
51901;SDS011;37929;53.218;6.548;2023-07-20T01:14:25;3.22;;;2.20;;
51901;SDS011;37929;53.218;6.548;2023-07-20T01:16:51;3.67;;;2.80;;
51901;SDS011;37929;53.218;6.548;2023-07-20T01:19:17;4.43;;;3.30;;
51901;SDS011;37929;53.218;6.548;2023-07-20T01:32:33;3.97;;;3.30;;
51901;SDS011;37929;53.218;6.548;2023-07-20T01:34:59;3.17;;;2.67;;
51901;SDS011;37929;53.218;6.548;2023-07-20T01:37:29;3.95;;;2.67;;
51901;SDS011;37929;53.218;6.548;2023-07-20T01:39:57;4.97;;;2.90;;
51901;SDS011;37929;53.218;6.548;2023-07-20T01:42:25;4.38;;;2.83;;
51901;SDS011;37929;53.218;6.548;2023-07-20T01:44:51;4.43;;;3.30;;
51901;SDS011;37929;53.218;6.548;2023-07-20T01:47:18;4.10;;;2.38;;
51901;SDS011;37929;53.218;6.548;2023-07-20T01:49:44;4.32;;;3.00;;
51901;SDS011;37929;53.218;6.548;2023-07-20T01:52:10;2.80;;;2.30;;
51901;SDS011;37929;53.218;6.548;2023-07-20T01:54:36;3.17;;;2.35;;
51901;SDS011;37929;53.218;6.548;2023-07-20T01:57:02;3.78;;;2.53;;
51901;SDS011;37929;53.218;6.548;2023-07-20T01:59:28;3.10;;;2.80;;
51901;SDS011;37929;53.218;6.548;2023-07-20T02:01:54;3.60;;;2.50;;
51901;SDS011;37929;53.218;6.548;2023-07-20T02:04:23;4.03;;;3.28;;
51901;SDS011;37929;53.218;6.548;2023-07-20T02:06:49;4.85;;;3.10;;
51901;SDS011;37929;53.218;6.548;2023-07-20T02:09:14;4.00;;;2.72;;
51901;SDS011;37929;53.218;6.548;2023-07-20T02:11:40;3.72;;;2.97;;
51901;SDS011;37929;53.218;6.548;2023-07-20T02:14:06;3.08;;;2.40;;
51901;SDS011;37929;53.218;6.548;2023-07-20T02:16:31;4.00;;;2.40;;
51901;SDS011;37929;53.218;6.548;2023-07-20T02:18:57;3.20;;;2.47;;
51901;SDS011;37929;53.218;6.548;2023-07-20T02:21:23;2.58;;;2.08;;
51901;SDS011;37929;53.218;6.548;2023-07-20T02:23:49;4.35;;;2.50;;
51901;SDS011;37929;53.218;6.548;2023-07-20T02:26:15;4.93;;;2.83;;
51901;SDS011;37929;53.218;6.548;2023-07-20T02:28:41;3.70;;;3.10;;
51901;SDS011;37929;53.218;6.548;2023-07-20T02:31:07;4.65;;;2.88;;
51901;SDS011;37929;53.218;6.548;2023-07-20T02:33:33;3.72;;;2.38;;
51901;SDS011;37929;53.218;6.548;2023-07-20T02:35:58;3.40;;;2.88;;
51901;SDS011;37929;53.218;6.548;2023-07-20T02:38:24;3.88;;;3.30;;
51901;SDS011;37929;53.218;6.548;2023-07-20T02:40:50;3.25;;;2.60;;
51901;SDS011;37929;53.218;6.548;2023-07-20T02:43:16;3.92;;;2.50;;
51901;SDS011;37929;53.218;6.548;2023-07-20T02:45:42;3.60;;;2.85;;
51901;SDS011;37929;53.218;6.548;2023-07-20T02:48:08;6.13;;;2.90;;
51901;SDS011;37929;53.218;6.548;2023-07-20T02:50:34;3.92;;;2.55;;
51901;SDS011;37929;53.218;6.548;2023-07-20T02:53:01;4.65;;;2.90;;
51901;SDS011;37929;53.218;6.548;2023-07-20T02:55:27;3.42;;;2.60;;
51901;SDS011;37929;53.218;6.548;2023-07-20T02:57:53;4.55;;;3.35;;
51901;SDS011;37929;53.218;6.548;2023-07-20T03:00:19;3.95;;;3.08;;
51901;SDS011;37929;53.218;6.548;2023-07-20T03:02:48;5.57;;;2.80;;
51901;SDS011;37929;53.218;6.548;2023-07-20T03:05:14;3.17;;;2.50;;
51901;SDS011;37929;53.218;6.548;2023-07-20T03:07:41;4.43;;;3.35;;
51901;SDS011;37929;53.218;6.548;2023-07-20T03:10:08;4.50;;;2.80;;
51901;SDS011;37929;53.218;6.548;2023-07-20T03:12:35;4.47;;;3.17;;
51901;SDS011;37929;53.218;6.548;2023-07-20T03:15:01;6.20;;;3.17;;
51901;SDS011;37929;53.218;6.548;2023-07-20T03:17:28;3.95;;;2.92;;
51901;SDS011;37929;53.218;6.548;2023-07-20T03:19:54;3.15;;;2.47;;
51901;SDS011;37929;53.218;6.548;2023-07-20T03:22:19;3.95;;;2.40;;
51901;SDS011;37929;53.218;6.548;2023-07-20T03:24:46;5.78;;;3.10;;
51901;SDS011;37929;53.218;6.548;2023-07-20T03:27:12;3.60;;;2.72;;
51901;SDS011;37929;53.218;6.548;2023-07-20T03:29:38;4.40;;;2.55;;
51901;SDS011;37929;53.218;6.548;2023-07-20T03:32:04;5.63;;;3.20;;
51901;SDS011;37929;53.218;6.548;2023-07-20T03:34:31;2.80;;;2.03;;
51901;SDS011;37929;53.218;6.548;2023-07-20T03:36:56;7.22;;;3.00;;
51901;SDS011;37929;53.218;6.548;2023-07-20T03:39:22;6.45;;;3.42;;
51901;SDS011;37929;53.218;6.548;2023-07-20T03:41:48;4.93;;;3.03;;
51901;SDS011;37929;53.218;6.548;2023-07-20T03:44:14;4.32;;;3.03;;
51901;SDS011;37929;53.218;6.548;2023-07-20T03:46:39;4.07;;;2.30;;
51901;SDS011;37929;53.218;6.548;2023-07-20T03:49:05;7.40;;;3.63;;
51901;SDS011;37929;53.218;6.548;2023-07-20T03:51:31;6.10;;;3.33;;
51901;SDS011;37929;53.218;6.548;2023-07-20T03:53:57;4.60;;;3.35;;
51901;SDS011;37929;53.218;6.548;2023-07-20T03:56:23;4.88;;;3.00;;
51901;SDS011;37929;53.218;6.548;2023-07-20T03:58:49;3.35;;;2.20;;
51901;SDS011;37929;53.218;6.548;2023-07-20T04:01:15;3.65;;;3.13;;
51901;SDS011;37929;53.218;6.548;2023-07-20T04:03:42;8.85;;;3.28;;
51901;SDS011;37929;53.218;6.548;2023-07-20T04:06:08;4.82;;;3.05;;
51901;SDS011;37929;53.218;6.548;2023-07-20T04:08:35;3.97;;;2.75;;
51901;SDS011;37929;53.218;6.548;2023-07-20T04:11:04;5.10;;;2.78;;
51901;SDS011;37929;53.218;6.548;2023-07-20T04:13:30;3.65;;;2.60;;
51901;SDS011;37929;53.218;6.548;2023-07-20T04:15:59;6.55;;;3.10;;
51901;SDS011;37929;53.218;6.548;2023-07-20T04:18:25;4.93;;;2.95;;
51901;SDS011;37929;53.218;6.548;2023-07-20T04:20:51;4.07;;;2.65;;
51901;SDS011;37929;53.218;6.548;2023-07-20T04:23:16;4.47;;;2.78;;
51901;SDS011;37929;53.218;6.548;2023-07-20T04:25:42;2.83;;;2.20;;
51901;SDS011;37929;53.218;6.548;2023-07-20T04:28:08;6.03;;;2.88;;
51901;SDS011;37929;53.218;6.548;2023-07-20T04:30:35;4.15;;;2.60;;
51901;SDS011;37929;53.218;6.548;2023-07-20T04:33:02;3.60;;;2.38;;
51901;SDS011;37929;53.218;6.548;2023-07-20T04:38:16;4.03;;;2.70;;
51901;SDS011;37929;53.218;6.548;2023-07-20T04:40:46;3.85;;;2.50;;
51901;SDS011;37929;53.218;6.548;2023-07-20T04:43:13;2.40;;;2.00;;
51901;SDS011;37929;53.218;6.548;2023-07-20T04:45:40;2.90;;;2.20;;
51901;SDS011;37929;53.218;6.548;2023-07-20T04:48:08;3.67;;;2.25;;
51901;SDS011;37929;53.218;6.548;2023-07-20T04:50:39;5.70;;;3.03;;
51901;SDS011;37929;53.218;6.548;2023-07-20T04:53:06;4.35;;;2.60;;
51901;SDS011;37929;53.218;6.548;2023-07-20T04:55:32;4.65;;;2.60;;
51901;SDS011;37929;53.218;6.548;2023-07-20T04:58:00;4.50;;;2.70;;
51901;SDS011;37929;53.218;6.548;2023-07-20T05:00:29;8.80;;;3.15;;
51901;SDS011;37929;53.218;6.548;2023-07-20T05:02:56;3.38;;;2.20;;
51901;SDS011;37929;53.218;6.548;2023-07-20T05:05:22;3.45;;;2.38;;
51901;SDS011;37929;53.218;6.548;2023-07-20T05:07:48;2.95;;;2.28;;
51901;SDS011;37929;53.218;6.548;2023-07-20T05:10:13;3.65;;;2.42;;
51901;SDS011;37929;53.218;6.548;2023-07-20T05:12:39;4.20;;;2.50;;
51901;SDS011;37929;53.218;6.548;2023-07-20T05:15:05;2.53;;;2.10;;
51901;SDS011;37929;53.218;6.548;2023-07-20T05:17:34;3.47;;;2.40;;
51901;SDS011;37929;53.218;6.548;2023-07-20T05:19:59;3.65;;;2.47;;
51901;SDS011;37929;53.218;6.548;2023-07-20T05:22:25;4.53;;;3.10;;
51901;SDS011;37929;53.218;6.548;2023-07-20T05:24:51;4.05;;;2.40;;
51901;SDS011;37929;53.218;6.548;2023-07-20T05:27:17;5.97;;;2.50;;
51901;SDS011;37929;53.218;6.548;2023-07-20T05:29:46;4.10;;;2.25;;
51901;SDS011;37929;53.218;6.548;2023-07-20T05:32:12;3.10;;;2.33;;
51901;SDS011;37929;53.218;6.548;2023-07-20T05:34:38;3.08;;;2.40;;
51901;SDS011;37929;53.218;6.548;2023-07-20T05:37:05;3.03;;;2.28;;
51901;SDS011;37929;53.218;6.548;2023-07-20T05:39:34;3.35;;;2.45;;
51901;SDS011;37929;53.218;6.548;2023-07-20T05:42:00;2.88;;;2.45;;
51901;SDS011;37929;53.218;6.548;2023-07-20T05:44:26;3.53;;;2.10;;
51901;SDS011;37929;53.218;6.548;2023-07-20T05:46:51;3.35;;;1.83;;
51901;SDS011;37929;53.218;6.548;2023-07-20T05:49:17;2.88;;;1.98;;
51901;SDS011;37929;53.218;6.548;2023-07-20T05:51:43;3.53;;;1.70;;
51901;SDS011;37929;53.218;6.548;2023-07-20T05:54:09;4.13;;;1.92;;
51901;SDS011;37929;53.218;6.548;2023-07-20T05:56:34;3.05;;;1.73;;
51901;SDS011;37929;53.218;6.548;2023-07-20T05:59:00;4.40;;;1.90;;
51901;SDS011;37929;53.218;6.548;2023-07-20T06:01:26;3.72;;;1.98;;
51901;SDS011;37929;53.218;6.548;2023-07-20T06:03:53;3.47;;;1.67;;
51901;SDS011;37929;53.218;6.548;2023-07-20T06:06:19;3.17;;;1.90;;
51901;SDS011;37929;53.218;6.548;2023-07-20T06:08:45;2.65;;;1.65;;
51901;SDS011;37929;53.218;6.548;2023-07-20T06:11:11;3.30;;;1.60;;
51901;SDS011;37929;53.218;6.548;2023-07-20T06:13:37;3.10;;;1.65;;
51901;SDS011;37929;53.218;6.548;2023-07-20T06:16:03;3.97;;;1.80;;
51901;SDS011;37929;53.218;6.548;2023-07-20T06:18:29;4.20;;;1.65;;
51901;SDS011;37929;53.218;6.548;2023-07-20T06:20:56;2.72;;;1.67;;
51901;SDS011;37929;53.218;6.548;2023-07-20T06:23:21;3.83;;;1.55;;
51901;SDS011;37929;53.218;6.548;2023-07-20T06:25:47;3.10;;;2.08;;
51901;SDS011;37929;53.218;6.548;2023-07-20T06:28:13;3.40;;;1.50;;
51901;SDS011;37929;53.218;6.548;2023-07-20T06:30:39;4.32;;;1.52;;
51901;SDS011;37929;53.218;6.548;2023-07-20T06:33:05;3.13;;;1.48;;
51901;SDS011;37929;53.218;6.548;2023-07-20T06:35:34;3.80;;;1.60;;
51901;SDS011;37929;53.218;6.548;2023-07-20T06:38:01;3.25;;;1.92;;
51901;SDS011;37929;53.218;6.548;2023-07-20T06:40:29;2.85;;;1.65;;
51901;SDS011;37929;53.218;6.548;2023-07-20T06:42:55;4.35;;;1.70;;
51901;SDS011;37929;53.218;6.548;2023-07-20T06:45:21;2.50;;;1.38;;
51901;SDS011;37929;53.218;6.548;2023-07-20T06:47:46;2.58;;;1.40;;
51901;SDS011;37929;53.218;6.548;2023-07-20T06:50:12;2.78;;;1.50;;
51901;SDS011;37929;53.218;6.548;2023-07-20T06:52:38;3.15;;;1.42;;
51901;SDS011;37929;53.218;6.548;2023-07-20T06:55:05;5.10;;;1.50;;
51901;SDS011;37929;53.218;6.548;2023-07-20T06:57:31;4.00;;;1.30;;
51901;SDS011;37929;53.218;6.548;2023-07-20T06:59:57;5.38;;;1.70;;
51901;SDS011;37929;53.218;6.548;2023-07-20T07:02:23;3.45;;;1.55;;
51901;SDS011;37929;53.218;6.548;2023-07-20T07:04:49;3.20;;;1.48;;
51901;SDS011;37929;53.218;6.548;2023-07-20T07:07:14;4.32;;;1.70;;
51901;SDS011;37929;53.218;6.548;2023-07-20T07:09:41;4.15;;;2.00;;
51901;SDS011;37929;53.218;6.548;2023-07-20T07:12:07;3.42;;;1.55;;
51901;SDS011;37929;53.218;6.548;2023-07-20T07:14:33;4.03;;;2.08;;
51901;SDS011;37929;53.218;6.548;2023-07-20T07:17:00;5.38;;;1.77;;
51901;SDS011;37929;53.218;6.548;2023-07-20T07:19:26;2.13;;;1.58;;
51901;SDS011;37929;53.218;6.548;2023-07-20T07:21:51;3.28;;;1.52;;
51901;SDS011;37929;53.218;6.548;2023-07-20T07:24:17;3.38;;;1.95;;
51901;SDS011;37929;53.218;6.548;2023-07-20T07:26:43;4.00;;;2.00;;
51901;SDS011;37929;53.218;6.548;2023-07-20T07:29:09;3.70;;;1.80;;
51901;SDS011;37929;53.218;6.548;2023-07-20T07:31:35;2.72;;;1.85;;
51901;SDS011;37929;53.218;6.548;2023-07-20T07:34:01;4.35;;;1.80;;
51901;SDS011;37929;53.218;6.548;2023-07-20T07:36:31;2.80;;;1.70;;
51901;SDS011;37929;53.218;6.548;2023-07-20T07:38:57;2.97;;;1.67;;
51901;SDS011;37929;53.218;6.548;2023-07-20T07:41:23;5.20;;;2.45;;
51901;SDS011;37929;53.218;6.548;2023-07-20T07:43:49;4.60;;;2.10;;
51901;SDS011;37929;53.218;6.548;2023-07-20T07:46:14;4.95;;;1.77;;
51901;SDS011;37929;53.218;6.548;2023-07-20T07:48:40;5.35;;;2.20;;
51901;SDS011;37929;53.218;6.548;2023-07-20T07:51:07;3.97;;;1.90;;
51901;SDS011;37929;53.218;6.548;2023-07-20T07:53:33;3.90;;;1.85;;
51901;SDS011;37929;53.218;6.548;2023-07-20T07:56:00;6.20;;;2.00;;
51901;SDS011;37929;53.218;6.548;2023-07-20T07:58:27;4.38;;;1.70;;
51901;SDS011;37929;53.218;6.548;2023-07-20T08:00:53;5.13;;;1.90;;
51901;SDS011;37929;53.218;6.548;2023-07-20T08:03:19;3.55;;;1.58;;
51901;SDS011;37929;53.218;6.548;2023-07-20T08:05:45;5.50;;;1.60;;
51901;SDS011;37929;53.218;6.548;2023-07-20T08:08:11;4.28;;;1.60;;
51901;SDS011;37929;53.218;6.548;2023-07-20T08:10:39;4.10;;;1.50;;
51901;SDS011;37929;53.218;6.548;2023-07-20T08:13:05;5.57;;;1.88;;
51901;SDS011;37929;53.218;6.548;2023-07-20T08:15:31;5.15;;;1.52;;
51901;SDS011;37929;53.218;6.548;2023-07-20T08:17:57;4.30;;;1.60;;
51901;SDS011;37929;53.218;6.548;2023-07-20T08:20:22;2.60;;;1.40;;
51901;SDS011;37929;53.218;6.548;2023-07-20T08:22:52;4.88;;;1.88;;
51901;SDS011;37929;53.218;6.548;2023-07-20T08:25:19;2.45;;;1.13;;
51901;SDS011;37929;53.218;6.548;2023-07-20T08:27:45;2.97;;;1.17;;
51901;SDS011;37929;53.218;6.548;2023-07-20T08:30:12;4.88;;;1.23;;
51901;SDS011;37929;53.218;6.548;2023-07-20T08:32:38;3.65;;;1.30;;
51901;SDS011;37929;53.218;6.548;2023-07-20T08:35:05;3.63;;;1.20;;
51901;SDS011;37929;53.218;6.548;2023-07-20T08:37:31;2.78;;;1.10;;
51901;SDS011;37929;53.218;6.548;2023-07-20T08:39:57;2.25;;;1.27;;
51901;SDS011;37929;53.218;6.548;2023-07-20T08:42:22;2.00;;;1.02;;
51901;SDS011;37929;53.218;6.548;2023-07-20T08:44:48;6.05;;;1.75;;
51901;SDS011;37929;53.218;6.548;2023-07-20T08:47:17;3.03;;;1.30;;
51901;SDS011;37929;53.218;6.548;2023-07-20T08:49:47;2.67;;;1.17;;
51901;SDS011;37929;53.218;6.548;2023-07-20T08:52:14;4.22;;;1.30;;
51901;SDS011;37929;53.218;6.548;2023-07-20T08:54:40;3.42;;;1.30;;
51901;SDS011;37929;53.218;6.548;2023-07-20T08:57:06;2.15;;;1.00;;
51901;SDS011;37929;53.218;6.548;2023-07-20T08:59:33;1.85;;;1.02;;
51901;SDS011;37929;53.218;6.548;2023-07-20T09:02:02;2.65;;;0.95;;
51901;SDS011;37929;53.218;6.548;2023-07-20T09:04:29;3.13;;;1.20;;
51901;SDS011;37929;53.218;6.548;2023-07-20T09:06:55;3.83;;;1.00;;
51901;SDS011;37929;53.218;6.548;2023-07-20T09:09:22;1.48;;;1.20;;
51901;SDS011;37929;53.218;6.548;2023-07-20T09:11:51;2.88;;;0.90;;
51901;SDS011;37929;53.218;6.548;2023-07-20T09:14:16;2.42;;;1.10;;
51901;SDS011;37929;53.218;6.548;2023-07-20T09:16:49;2.75;;;1.10;;
51901;SDS011;37929;53.218;6.548;2023-07-20T09:19:18;2.75;;;0.90;;
51901;SDS011;37929;53.218;6.548;2023-07-20T09:21:53;1.73;;;1.02;;
51901;SDS011;37929;53.218;6.548;2023-07-20T09:24:19;1.00;;;0.60;;
51901;SDS011;37929;53.218;6.548;2023-07-20T09:26:46;3.15;;;1.20;;
51901;SDS011;37929;53.218;6.548;2023-07-20T09:29:13;2.65;;;1.05;;
51901;SDS011;37929;53.218;6.548;2023-07-20T09:31:39;2.58;;;1.05;;
51901;SDS011;37929;53.218;6.548;2023-07-20T09:34:05;4.03;;;0.93;;
51901;SDS011;37929;53.218;6.548;2023-07-20T09:36:35;2.00;;;1.00;;
51901;SDS011;37929;53.218;6.548;2023-07-20T09:39:02;2.90;;;1.20;;
51901;SDS011;37929;53.218;6.548;2023-07-20T09:41:29;1.92;;;0.85;;
51901;SDS011;37929;53.218;6.548;2023-07-20T09:44:04;2.42;;;1.05;;
51901;SDS011;37929;53.218;6.548;2023-07-20T09:49:28;3.10;;;0.80;;
51901;SDS011;37929;53.218;6.548;2023-07-20T09:52:00;2.13;;;1.00;;
51901;SDS011;37929;53.218;6.548;2023-07-20T09:54:32;5.18;;;1.10;;
51901;SDS011;37929;53.218;6.548;2023-07-20T09:56:59;1.73;;;1.00;;
51901;SDS011;37929;53.218;6.548;2023-07-20T09:59:28;3.00;;;0.90;;
51901;SDS011;37929;53.218;6.548;2023-07-20T10:01:56;3.05;;;1.20;;
51901;SDS011;37929;53.218;6.548;2023-07-20T10:04:26;3.05;;;1.00;;
51901;SDS011;37929;53.218;6.548;2023-07-20T10:06:54;2.35;;;0.82;;
51901;SDS011;37929;53.218;6.548;2023-07-20T10:09:23;1.17;;;0.80;;
51901;SDS011;37929;53.218;6.548;2023-07-20T10:11:50;2.47;;;1.10;;
51901;SDS011;37929;53.218;6.548;2023-07-20T10:14:19;3.05;;;1.27;;
51901;SDS011;37929;53.218;6.548;2023-07-20T10:16:55;2.17;;;1.00;;
51901;SDS011;37929;53.218;6.548;2023-07-20T10:22:15;2.38;;;1.05;;
51901;SDS011;37929;53.218;6.548;2023-07-20T10:24:45;3.60;;;1.85;;
51901;SDS011;37929;53.218;6.548;2023-07-20T10:27:13;2.53;;;1.33;;
51901;SDS011;37929;53.218;6.548;2023-07-20T10:29:41;2.85;;;1.00;;
51901;SDS011;37929;53.218;6.548;2023-07-20T10:32:07;1.92;;;0.85;;
51901;SDS011;37929;53.218;6.548;2023-07-20T10:34:34;1.63;;;0.95;;
51901;SDS011;37929;53.218;6.548;2023-07-20T10:37:00;2.42;;;1.05;;
51901;SDS011;37929;53.218;6.548;2023-07-20T10:39:27;1.70;;;1.08;;
51901;SDS011;37929;53.218;6.548;2023-07-20T10:42:08;2.75;;;1.10;;
51901;SDS011;37929;53.218;6.548;2023-07-20T10:44:39;1.90;;;0.90;;
51901;SDS011;37929;53.218;6.548;2023-07-20T10:47:09;2.08;;;0.90;;
51901;SDS011;37929;53.218;6.548;2023-07-20T10:49:57;3.10;;;1.10;;
51901;SDS011;37929;53.218;6.548;2023-07-20T10:52:24;3.28;;;1.45;;
51901;SDS011;37929;53.218;6.548;2023-07-20T10:54:49;2.08;;;1.10;;
51901;SDS011;37929;53.218;6.548;2023-07-20T10:57:22;3.25;;;1.10;;
51901;SDS011;37929;53.218;6.548;2023-07-20T11:00:09;2.53;;;1.20;;
51901;SDS011;37929;53.218;6.548;2023-07-20T11:02:46;4.85;;;1.20;;
51901;SDS011;37929;53.218;6.548;2023-07-20T11:08:00;1.23;;;1.00;;
51901;SDS011;37929;53.218;6.548;2023-07-20T11:10:27;1.80;;;0.90;;
51901;SDS011;37929;53.218;6.548;2023-07-20T11:15:47;2.20;;;1.05;;
51901;SDS011;37929;53.218;6.548;2023-07-20T11:18:25;1.40;;;0.82;;
51901;SDS011;37929;53.218;6.548;2023-07-20T11:20:51;2.15;;;0.90;;
51901;SDS011;37929;53.218;6.548;2023-07-20T11:23:19;2.15;;;1.00;;
51901;SDS011;37929;53.218;6.548;2023-07-20T11:25:46;2.38;;;1.20;;
51901;SDS011;37929;53.218;6.548;2023-07-20T11:28:12;4.15;;;1.20;;
51901;SDS011;37929;53.218;6.548;2023-07-20T11:30:38;2.72;;;1.10;;
51901;SDS011;37929;53.218;6.548;2023-07-20T11:33:04;1.92;;;1.10;;
51901;SDS011;37929;53.218;6.548;2023-07-20T11:35:41;3.75;;;1.23;;
51901;SDS011;37929;53.218;6.548;2023-07-20T11:38:12;1.75;;;1.13;;
51901;SDS011;37929;53.218;6.548;2023-07-20T11:40:42;1.50;;;1.17;;
51901;SDS011;37929;53.218;6.548;2023-07-20T11:43:09;2.40;;;0.90;;
51901;SDS011;37929;53.218;6.548;2023-07-20T11:45:37;2.83;;;0.95;;
51901;SDS011;37929;53.218;6.548;2023-07-20T11:48:04;1.92;;;0.88;;
51901;SDS011;37929;53.218;6.548;2023-07-20T11:50:39;2.40;;;0.90;;
51901;SDS011;37929;53.218;6.548;2023-07-20T11:53:05;3.03;;;1.10;;
51901;SDS011;37929;53.218;6.548;2023-07-20T11:55:32;1.45;;;0.90;;
51901;SDS011;37929;53.218;6.548;2023-07-20T11:58:04;2.92;;;1.00;;
51901;SDS011;37929;53.218;6.548;2023-07-20T12:00:31;1.23;;;0.73;;
51901;SDS011;37929;53.218;6.548;2023-07-20T12:02:58;1.70;;;1.05;;
51901;SDS011;37929;53.218;6.548;2023-07-20T12:05:24;4.00;;;0.90;;
51901;SDS011;37929;53.218;6.548;2023-07-20T12:07:51;3.47;;;1.15;;
51901;SDS011;37929;53.218;6.548;2023-07-20T12:10:23;2.47;;;0.90;;
51901;SDS011;37929;53.218;6.548;2023-07-20T12:12:53;3.70;;;1.05;;
51901;SDS011;37929;53.218;6.548;2023-07-20T12:17:51;2.10;;;1.05;;
51901;SDS011;37929;53.218;6.548;2023-07-20T12:20:28;2.42;;;1.42;;
51901;SDS011;37929;53.218;6.548;2023-07-20T12:25:47;2.67;;;0.80;;
51901;SDS011;37929;53.218;6.548;2023-07-20T12:28:14;2.25;;;1.10;;
51901;SDS011;37929;53.218;6.548;2023-07-20T12:30:42;1.98;;;1.10;;
51901;SDS011;37929;53.218;6.548;2023-07-20T12:33:09;1.85;;;1.10;;
51901;SDS011;37929;53.218;6.548;2023-07-20T12:35:35;1.50;;;0.80;;
51901;SDS011;37929;53.218;6.548;2023-07-20T12:38:01;2.00;;;0.90;;
51901;SDS011;37929;53.218;6.548;2023-07-20T12:40:27;1.98;;;1.00;;
51901;SDS011;37929;53.218;6.548;2023-07-20T12:42:53;1.00;;;0.70;;
51901;SDS011;37929;53.218;6.548;2023-07-20T12:45:19;1.20;;;0.70;;
51901;SDS011;37929;53.218;6.548;2023-07-20T12:47:45;1.48;;;0.90;;
51901;SDS011;37929;53.218;6.548;2023-07-20T12:50:11;2.17;;;0.90;;
51901;SDS011;37929;53.218;6.548;2023-07-20T12:52:37;2.75;;;1.00;;
51901;SDS011;37929;53.218;6.548;2023-07-20T12:55:07;3.78;;;1.20;;
51901;SDS011;37929;53.218;6.548;2023-07-20T12:57:35;2.22;;;1.27;;
51901;SDS011;37929;53.218;6.548;2023-07-20T13:00:05;2.35;;;1.02;;
51901;SDS011;37929;53.218;6.548;2023-07-20T13:02:35;5.03;;;1.70;;
51901;SDS011;37929;53.218;6.548;2023-07-20T13:05:01;2.58;;;1.10;;
51901;SDS011;37929;53.218;6.548;2023-07-20T13:07:31;4.55;;;1.38;;
51901;SDS011;37929;53.218;6.548;2023-07-20T13:09:58;2.70;;;1.13;;
51901;SDS011;37929;53.218;6.548;2023-07-20T13:12:26;2.22;;;1.33;;
51901;SDS011;37929;53.218;6.548;2023-07-20T13:14:56;2.88;;;1.17;;
51901;SDS011;37929;53.218;6.548;2023-07-20T13:17:25;3.03;;;1.25;;
51901;SDS011;37929;53.218;6.548;2023-07-20T13:19:51;1.38;;;0.88;;
51901;SDS011;37929;53.218;6.548;2023-07-20T13:22:17;2.67;;;1.30;;
51901;SDS011;37929;53.218;6.548;2023-07-20T13:24:43;3.35;;;1.33;;
51901;SDS011;37929;53.218;6.548;2023-07-20T13:27:11;1.80;;;1.20;;
51901;SDS011;37929;53.218;6.548;2023-07-20T13:29:37;2.88;;;1.08;;
51901;SDS011;37929;53.218;6.548;2023-07-20T13:32:02;3.47;;;1.25;;
51901;SDS011;37929;53.218;6.548;2023-07-20T13:34:31;2.63;;;1.27;;
51901;SDS011;37929;53.218;6.548;2023-07-20T13:36:57;2.20;;;1.27;;
51901;SDS011;37929;53.218;6.548;2023-07-20T13:39:22;3.95;;;1.30;;
51901;SDS011;37929;53.218;6.548;2023-07-20T13:41:54;4.38;;;1.30;;
51901;SDS011;37929;53.218;6.548;2023-07-20T13:44:22;2.90;;;1.30;;
51901;SDS011;37929;53.218;6.548;2023-07-20T13:46:49;1.70;;;1.13;;
51901;SDS011;37929;53.218;6.548;2023-07-20T13:49:15;2.17;;;1.20;;
51901;SDS011;37929;53.218;6.548;2023-07-20T13:51:41;3.65;;;1.45;;
51901;SDS011;37929;53.218;6.548;2023-07-20T13:54:07;2.90;;;1.40;;
51901;SDS011;37929;53.218;6.548;2023-07-20T13:56:33;4.47;;;1.38;;
51901;SDS011;37929;53.218;6.548;2023-07-20T13:58:59;4.32;;;1.58;;
51901;SDS011;37929;53.218;6.548;2023-07-20T14:01:26;4.18;;;1.13;;
51901;SDS011;37929;53.218;6.548;2023-07-20T14:03:53;2.90;;;1.10;;
51901;SDS011;37929;53.218;6.548;2023-07-20T14:06:19;2.28;;;1.30;;
51901;SDS011;37929;53.218;6.548;2023-07-20T14:08:45;4.63;;;1.30;;
51901;SDS011;37929;53.218;6.548;2023-07-20T14:11:15;2.40;;;1.30;;
51901;SDS011;37929;53.218;6.548;2023-07-20T14:13:41;2.88;;;1.10;;
51901;SDS011;37929;53.218;6.548;2023-07-20T14:16:07;2.63;;;1.30;;
51901;SDS011;37929;53.218;6.548;2023-07-20T14:18:33;2.67;;;1.23;;
51901;SDS011;37929;53.218;6.548;2023-07-20T14:20:59;3.03;;;1.30;;
51901;SDS011;37929;53.218;6.548;2023-07-20T14:23:28;3.30;;;1.20;;
51901;SDS011;37929;53.218;6.548;2023-07-20T14:25:54;2.38;;;1.20;;
51901;SDS011;37929;53.218;6.548;2023-07-20T14:28:20;2.95;;;1.30;;
51901;SDS011;37929;53.218;6.548;2023-07-20T14:30:46;3.40;;;1.20;;
51901;SDS011;37929;53.218;6.548;2023-07-20T14:33:12;4.30;;;1.92;;
51901;SDS011;37929;53.218;6.548;2023-07-20T14:35:38;1.50;;;1.00;;
51901;SDS011;37929;53.218;6.548;2023-07-20T14:38:03;2.88;;;1.42;;
51901;SDS011;37929;53.218;6.548;2023-07-20T14:40:38;2.03;;;1.10;;
51901;SDS011;37929;53.218;6.548;2023-07-20T14:43:04;1.85;;;1.08;;
51901;SDS011;37929;53.218;6.548;2023-07-20T14:45:30;1.75;;;1.13;;
51901;SDS011;37929;53.218;6.548;2023-07-20T14:47:56;2.70;;;1.33;;
51901;SDS011;37929;53.218;6.548;2023-07-20T14:50:22;2.20;;;1.30;;
51901;SDS011;37929;53.218;6.548;2023-07-20T14:52:47;3.00;;;1.33;;
51901;SDS011;37929;53.218;6.548;2023-07-20T14:55:14;2.20;;;1.30;;
51901;SDS011;37929;53.218;6.548;2023-07-20T14:57:40;4.32;;;1.48;;
51901;SDS011;37929;53.218;6.548;2023-07-20T15:00:06;1.95;;;1.20;;
51901;SDS011;37929;53.218;6.548;2023-07-20T15:02:36;3.17;;;1.20;;
51901;SDS011;37929;53.218;6.548;2023-07-20T15:05:03;3.35;;;1.42;;
51901;SDS011;37929;53.218;6.548;2023-07-20T15:07:31;3.90;;;1.75;;
51901;SDS011;37929;53.218;6.548;2023-07-20T15:09:57;4.70;;;1.30;;
51901;SDS011;37929;53.218;6.548;2023-07-20T15:12:23;2.85;;;1.67;;
51901;SDS011;37929;53.218;6.548;2023-07-20T15:15:07;2.10;;;1.48;;
51901;SDS011;37929;53.218;6.548;2023-07-20T15:17:34;2.72;;;1.90;;
51901;SDS011;37929;53.218;6.548;2023-07-20T15:20:02;2.20;;;1.52;;
51901;SDS011;37929;53.218;6.548;2023-07-20T15:22:30;2.85;;;1.67;;